Twin Rocks, Pennsylvania
Current Conditions -  °F | °C
As of 1:54 PM on Thursday 23 Oct 2014 (Local Time) from KJST Reporting Station
Few Clouds Few Clouds  
Wind Chill: 54°   Ceiling: Unl
Heat Index: 54°   Visibility: 10mi
Dew Point: 39°   Wind: 22mph
Humidity: 57%   Direction: 310°NW
Pressure: 29.99"   Gusts: 29mph
Location:  40.5°N, 78.87°W
Report Text: KJST 231754Z AUTO 31019G25KT 10SM FEW031 12/04 A2999 RMK AO2 PK WND 31027/1700 SLP164 T01220039 10128 20056 58017
Loading
Personal Weather Stations






























Interactive Weather Map
Tropical Storm Tracking
New forecast layout! Learn more

10-Day Weather Forecast

Advertisements
Track Severe Weather on mobile